地図

経路データ

SID SEASON NUMBER BASIN SUBBASIN NAME ISO_TIME NATURE LAT LON WMO_WIND WMO_PRES WMO_AGENCY TRACK_TYPE DIST2LAND LANDFALL IFLAG USA_AGENCY USA_ATCF_ID USA_LAT USA_LON USA_RECORD USA_STATUS USA_WIND USA_PRES USA_SSHS USA_R34_NE USA_R34_SE USA_R34_SW USA_R34_NW USA_R50_NE USA_R50_SE USA_R50_SW USA_R50_NW USA_R64_NE USA_R64_SE USA_R64_SW USA_R64_NW USA_POCI USA_ROCI USA_RMW USA_EYE TOKYO_LAT TOKYO_LON TOKYO_GRADE TOKYO_WIND TOKYO_PRES TOKYO_R50_DIR TOKYO_R50_LONG TOKYO_R50_SHORT TOKYO_R30_DIR TOKYO_R30_LONG TOKYO_R30_SHORT TOKYO_LAND CMA_LAT CMA_LON CMA_CAT CMA_WIND CMA_PRES HKO_LAT HKO_LON HKO_CAT HKO_WIND HKO_PRES NEWDELHI_LAT NEWDELHI_LON NEWDELHI_GRADE NEWDELHI_WIND NEWDELHI_PRES NEWDELHI_CI NEWDELHI_DP NEWDELHI_POCI REUNION_LAT REUNION_LON REUNION_TYPE REUNION_WIND REUNION_PRES REUNION_TNUM REUNION_CI REUNION_RMW REUNION_R34_NE REUNION_R34_SE REUNION_R34_SW REUNION_R34_NW REUNION_R50_NE REUNION_R50_SE REUNION_R50_SW REUNION_R50_NW REUNION_R64_NE REUNION_R64_SE REUNION_R64_SW REUNION_R64_NW BOM_LAT BOM_LON BOM_TYPE BOM_WIND BOM_PRES BOM_TNUM BOM_CI BOM_RMW BOM_R34_NE BOM_R34_SE BOM_R34_SW BOM_R34_NW BOM_R50_NE BOM_R50_SE BOM_R50_SW BOM_R50_NW BOM_R64_NE BOM_R64_SE BOM_R64_SW BOM_R64_NW BOM_ROCI BOM_POCI BOM_EYE BOM_POS_METHOD BOM_PRES_METHOD NADI_LAT NADI_LON NADI_CAT NADI_WIND NADI_PRES WELLINGTON_LAT WELLINGTON_LON WELLINGTON_WIND WELLINGTON_PRES DS824_LAT DS824_LON DS824_STAGE DS824_WIND DS824_PRES TD9636_LAT TD9636_LON TD9636_STAGE TD9636_WIND TD9636_PRES TD9635_LAT TD9635_LON TD9635_WIND TD9635_PRES TD9635_ROCI NEUMANN_LAT NEUMANN_LON NEUMANN_CLASS NEUMANN_WIND NEUMANN_PRES MLC_LAT MLC_LON MLC_CLASS MLC_WIND MLC_PRES USA_GUST BOM_GUST BOM_GUST_PER REUNION_GUST REUNION_GUST_PER USA_SEAHGT USA_SEARAD_NE USA_SEARAD_SE USA_SEARAD_SW USA_SEARAD_NW STORM_SPEED STORM_DIR
1973187N19087 1973 59 NI BB NOT_NAMED 1973-07-06 00:00:00 TS 19.3000 86.5000 main 78 64 O________OO___ jtwc_io IO031973 19.3000 86.5000 -1 19.3000 86.5000 TC 25 19.3000 86.5000 1 4 327
1973187N19087 1973 59 NI BB NOT_NAMED 1973-07-06 03:00:00 TS 19.4481 86.3985 main 64 39 P________PP___ IO031973 19.4525 86.4000 -1 19.4525 86.4000 TC 25 19.4392 86.3955 1 4 327
1973187N19087 1973 59 NI BB NOT_NAMED 1973-07-06 06:00:00 TS 19.5942 86.2976 main 39 24 O________OP___ jtwc_io IO031973 19.6000 86.3000 -1 19.6000 86.3000 TC 25 19.5827 86.2927 1 3 327
1973187N19087 1973 59 NI BB NOT_NAMED 1973-07-06 09:00:00 TS 19.7399 86.1978 main 24 0 P________PP___ IO031973 19.7425 86.2000 -1 19.7425 86.2000 TC 25 19.7348 86.1936 1 4 329
1973187N19087 1973 59 NI BB NOT_NAMED 1973-07-06 12:00:00 TS 19.9000 86.1000 main 0 0 O________OO___ jtwc_io IO031973 19.9000 86.1000 -1 19.9000 86.1000 TC 25 19.9000 86.1000 1 4 333
1973187N19087 1973 59 NI BB NOT_NAMED 1973-07-06 15:00:00 TS 20.0933 86.0085 main 0 0 P________PP___ IO031973 20.1000 86.0075 -1 20.1000 86.0075 TC 25 20.0798 86.0105 1 4 335
1973187N19087 1973 59 NI BB NOT_NAMED 1973-07-06 18:00:00 TS 20.2882 85.9033 main 0 0 O________OP___ jtwc_io IO031973 20.3000 85.9000 -1 20.3000 85.9000 TC 25 20.2647 85.9098 1 4 328
1973187N19087 1973 59 NI BB NOT_NAMED 1973-07-06 21:00:00 TS 20.4574 85.7697 main 0 0 P________PP___ IO031973 20.4650 85.7650 -1 20.4650 85.7650 TC 25 20.4422 85.7792 1 4 318
1973187N19087 1973 59 NI BB NOT_NAMED 1973-07-07 00:00:00 TS 20.6000 85.6000 main 0 0 O________OO___ jtwc_io IO031973 20.6000 85.6000 -1 20.6000 85.6000 TC 25 20.6000 85.6000 1 4 308
1973187N19087 1973 59 NI BB NOT_NAMED 1973-07-07 03:00:00 TS 20.7106 85.4218 main 0 0 P________PP___ IO031973 20.7074 85.4374 -1 20.7074 85.4374 TC 25 20.7170 85.3906 1 4 297
1973187N19087 1973 59 NI BB NOT_NAMED 1973-07-07 06:00:00 TS 20.8047 85.1756 main 0 0 O________OP___ jtwc_io IO031973 20.8000 85.2000 -1 20.8000 85.2000 TC 25 20.8142 85.1269 1 6 289
1973187N19087 1973 59 NI BB NOT_NAMED 1973-07-07 09:00:00 TS 20.9014 84.8349 main 0 0 P________PP___ IO031973 20.8999 84.8524 -1 20.8999 84.8524 TC 25 20.9043 84.7998 1 8 285
1973187N19087 1973 59 NI BB NOT_NAMED 1973-07-07 12:00:00 TS 21.0000 84.4000 main 0 0 O________OO___ jtwc_io IO031973 21.0000 84.4000 -1 21.0000 84.4000 TC 25 21.0000 84.4000 1 9 282
1973187N19087 1973 59 NI BB NOT_NAMED 1973-07-07 15:00:00 TS 21.0958 83.8847 main 0 0 P________PP___ IO031973 21.0925 83.8724 -1 21.0925 83.8724 TC 25 21.1022 83.9094 1 10 281
1973187N19087 1973 59 NI BB NOT_NAMED 1973-07-07 18:00:00 TS 21.2045 83.3173 main 0 0 O________OP___ jtwc_io IO031973 21.2000 83.3000 -1 21.2000 83.3000 TC 25 21.2134 83.3520 1 11 283
1973187N19087 1973 59 NI BB NOT_NAMED 1973-07-07 21:00:00 TS 21.3375 82.7512 main 0 0 P________PP___ IO031973 21.3349 82.7424 -1 21.3349 82.7424 TC 25 21.3428 82.7686 1 11 286
1973187N19087 1973 59 NI BB NOT_NAMED 1973-07-08 00:00:00 TS 21.5000 82.2000 main 0 0 O________OO___ jtwc_io IO031973 21.5000 82.2000 -1 21.5000 82.2000 TC 25 21.5000 82.2000 1 11 290
1973187N19087 1973 59 NI BB NOT_NAMED 1973-07-08 03:00:00 TS 21.6941 81.6711 main 0 0 P________PP___ IO031973 21.6848 81.6849 -1 21.6848 81.6849 TC 25 21.7127 81.6434 1 10 294
1973187N19087 1973 59 NI BB NOT_NAMED 1973-07-08 06:00:00 TS 21.9168 81.1721 main 0 0 O________OP___ jtwc_io IO031973 21.9000 81.2000 -1 21.9000 81.2000 TC 25 21.9504 81.1163 1 10 297
1973187N19087 1973 59 NI BB NOT_NAMED 1973-07-08 09:00:00 TS 22.1677 80.6888 main 0 0 P________PP___ IO031973 22.1576 80.7052 -1 22.1576 80.7052 TC 25 22.1879 80.6559 1 9 301
1973187N19087 1973 59 NI BB NOT_NAMED 1973-07-08 12:00:00 TS 22.4000 80.3000 main 0 0 O________OO___ jtwc_io IO031973 22.4000 80.3000 -1 22.4000 80.3000 TC 25 22.4000 80.3000 1 7 304
1973187N19087 1973 59 NI BB NOT_NAMED 1973-07-08 15:00:00 TS 22.5710 80.0464 main 0 0 P________PP___ IO031973 22.5723 80.0323 -1 22.5723 80.0323 TC 25 22.5683 80.0745 1 5 311
1973187N19087 1973 59 NI BB NOT_NAMED 1973-07-08 18:00:00 TS 22.6998 79.9188 main 0 0 O________OP___ jtwc_io IO031973 22.7000 79.9000 -1 22.7000 79.9000 TC 25 22.6994 79.9565 1 3 328
1973187N19087 1973 59 NI BB NOT_NAMED 1973-07-08 21:00:00 TS 22.8053 79.8851 main 0 0 P________PP___ IO031973 22.8051 79.8725 -1 22.8051 79.8725 TC 25 22.8059 79.9103 1 2 353
1973187N19087 1973 59 NI BB NOT_NAMED 1973-07-09 00:00:00 TS 22.9000 79.9000 main 0 O________OO___ jtwc_io IO031973 22.9000 79.9000 -1 22.9000 79.9000 TC 25 22.9000 79.9000 6 2 12

IBTrACS Databaseについて

本データベースは、米国NOAAが公開する1842年以降の世界の熱帯低気圧のベストトラックデータアーカイブInternational Best Track Archive for Climate Stewardship (IBTrACS)を、ウェブで閲覧しやすい形式に変換したものです。

最終更新日:2021-10-21